Time;durP1;ratioP1;P1;durP2;ratioP2;P2;SDS_P1;SDS_P2;PMS_P1;PMS_P2;Temp;Humidity;BMP_temperature;BMP_pressure;BME280_temperature;BME280_humidity;BME280_pressure;Samples;Min_cycle;Max_cycle;Signal;HPM_P1;HPM_P2
2024/02/17 00:00:51;;;;;;;20.50;10.10;;;;;;;1.55;100.00;102761.70;106172;1254;73573;-62
2024/02/17 00:03:22;;;;;;;20.60;10.80;;;;;;;1.54;100.00;102758.48;106107;1254;65998;-62
2024/02/17 00:05:51;;;;;;;16.60;10.20;;;;;;;1.53;100.00;102762.01;106138;1256;72623;-60
2024/02/17 00:08:18;;;;;;;18.00;10.00;;;;;;;1.53;100.00;102759.17;106218;1265;61826;-61
2024/02/17 00:10:46;;;;;;;23.40;11.00;;;;;;;1.54;100.00;102760.07;106129;1254;60399;-63
2024/02/17 00:13:13;;;;;;;18.00;10.90;;;;;;;1.53;100.00;102758.62;106078;1254;74271;-62
2024/02/17 00:15:40;;;;;;;15.90;10.10;;;;;;;1.53;100.00;102750.84;106051;1259;67033;-62
2024/02/17 00:18:09;;;;;;;16.00;10.70;;;;;;;1.53;100.00;102747.67;106076;1259;71432;-63
2024/02/17 00:20:36;;;;;;;21.00;12.70;;;;;;;1.53;100.00;102748.88;106516;1254;60543;-62
2024/02/17 00:23:04;;;;;;;20.40;11.60;;;;;;;1.51;100.00;102748.67;106132;1259;60409;-59
2024/02/17 00:25:32;;;;;;;24.10;12.60;;;;;;;1.50;100.00;102747.38;106080;1254;73805;-62
2024/02/17 00:27:59;;;;;;;21.40;11.30;;;;;;;1.47;100.00;102745.34;106109;1259;65960;-60
2024/02/17 00:30:26;;;;;;;20.00;11.30;;;;;;;1.44;100.00;102738.48;105988;1258;71501;-62
2024/02/17 00:32:54;;;;;;;18.80;10.20;;;;;;;1.41;100.00;102734.67;106096;1258;60890;-61
2024/02/17 00:35:21;;;;;;;19.50;10.50;;;;;;;1.40;100.00;102730.05;106184;1254;60550;-61
2024/02/17 00:37:49;;;;;;;19.10;10.70;;;;;;;1.40;100.00;102727.20;106113;1258;72831;-62
2024/02/17 00:40:16;;;;;;;15.70;9.10;;;;;;;1.40;100.00;102721.34;106142;1254;67035;-61
2024/02/17 00:42:43;;;;;;;17.30;11.30;;;;;;;1.40;100.00;102716.55;106114;1269;70487;-62
2024/02/17 00:45:11;;;;;;;19.20;10.70;;;;;;;1.40;100.00;102712.34;106134;1257;60586;-63
2024/02/17 00:47:38;;;;;;;21.20;10.60;;;;;;;1.40;100.00;102707.73;106122;1259;60415;-62
2024/02/17 00:50:06;;;;;;;20.90;11.20;;;;;;;1.43;100.00;102708.73;106274;1259;74167;-60
2024/02/17 00:52:34;;;;;;;23.70;11.00;;;;;;;1.44;100.00;102709.31;106372;1254;66946;-62
2024/02/17 00:55:01;;;;;;;18.20;10.90;;;;;;;1.43;100.00;102706.41;106739;1259;71077;-61
2024/02/17 00:57:29;;;;;;;17.30;10.80;;;;;;;1.41;100.00;102710.06;106115;1256;60496;-62
2024/02/17 00:59:56;;;;;;;22.00;12.30;;;;;;;1.40;100.00;102711.96;106031;1258;60575;-59
2024/02/17 01:02:23;;;;;;;19.40;10.70;;;;;;;1.38;100.00;102708.88;106134;1254;72601;-63
2024/02/17 01:04:50;;;;;;;17.30;11.60;;;;;;;1.36;100.00;102704.58;106103;1253;65022;-63
2024/02/17 01:07:18;;;;;;;20.70;11.60;;;;;;;1.34;100.00;102700.08;106646;1259;71789;-63
2024/02/17 01:09:45;;;;;;;23.60;10.90;;;;;;;1.34;100.00;102701.85;109059;1254;61250;-63
2024/02/17 01:12:13;;;;;;;23.60;10.90;;;;;;;1.34;100.00;102695.33;109014;1252;58418;-63
2024/02/17 01:14:40;;;;;;;17.80;10.00;;;;;;;1.35;100.00;102690.05;106102;1260;72580;-63
2024/02/17 01:17:07;;;;;;;20.50;11.30;;;;;;;1.36;100.00;102690.96;106138;1257;66638;-61
2024/02/17 01:19:35;;;;;;;20.00;11.30;;;;;;;1.38;100.00;102689.08;106069;1259;70657;-62
2024/02/17 01:22:02;;;;;;;19.40;11.20;;;;;;;1.41;100.00;102689.00;106101;1270;61234;-61
2024/02/17 01:24:29;;;;;;;21.60;11.60;;;;;;;1.42;100.00;102694.20;106208;1254;60597;-62
2024/02/17 01:26:57;;;;;;;23.20;12.40;;;;;;;1.42;100.00;102692.41;106208;1257;72879;-62
2024/02/17 01:29:24;;;;;;;19.40;12.10;;;;;;;1.41;100.00;102689.01;106163;1253;66674;-63
2024/02/17 01:31:53;;;;;;;17.70;10.60;;;;;;;1.40;100.00;102689.15;106134;1259;72691;-63
2024/02/17 01:34:20;;;;;;;19.40;11.70;;;;;;;1.40;100.00;102690.02;106125;1256;60978;-63
2024/02/17 01:36:49;;;;;;;20.20;10.60;;;;;;;1.38;100.00;102686.24;106107;1257;60482;-61
2024/02/17 01:39:17;;;;;;;16.00;10.00;;;;;;;1.37;100.00;102685.49;106110;1256;72737;-62
2024/02/17 01:41:44;;;;;;;15.60;9.80;;;;;;;1.37;100.00;102683.02;106119;1254;68950;-65
2024/02/17 01:44:12;;;;;;;18.40;10.70;;;;;;;1.37;100.00;102680.36;106061;1259;73370;-63
2024/02/17 01:46:40;;;;;;;12.30;8.70;;;;;;;1.37;100.00;102682.14;109058;1254;60883;-62
2024/02/17 01:49:07;;;;;;;14.80;9.30;;;;;;;1.38;100.00;102681.11;109155;1253;59135;-62
2024/02/17 01:51:35;;;;;;;14.00;9.30;;;;;;;1.39;100.00;102680.95;108989;1254;72732;-62
2024/02/17 01:54:03;;;;;;;17.40;10.60;;;;;;;1.40;100.00;102682.05;108877;1252;65643;-63
2024/02/17 01:56:30;;;;;;;16.60;11.20;;;;;;;1.41;100.00;102683.70;106136;1254;71481;-62
2024/02/17 01:58:58;;;;;;;18.00;10.70;;;;;;;1.43;100.00;102679.55;106101;1269;60293;-62
2024/02/17 02:01:26;;;;;;;18.80;12.00;;;;;;;1.44;100.00;102679.76;106067;1256;60562;-60
2024/02/17 02:03:53;;;;;;;19.90;10.80;;;;;;;1.45;100.00;102678.89;106084;1263;73924;-63
2024/02/17 02:06:23;;;;;;;18.90;11.80;;;;;;;1.45;100.00;102676.23;106143;1256;65029;-63
2024/02/17 02:08:51;;;;;;;19.30;11.80;;;;;;;1.46;100.00;102678.74;108580;1257;71483;-58
2024/02/17 02:11:19;;;;;;;19.60;12.70;;;;;;;1.46;100.00;102675.89;106762;1256;61309;-58
2024/02/17 02:13:46;;;;;;;19.60;12.80;;;;;;;1.45;100.00;102671.62;106585;1255;60492;-58
2024/02/17 02:16:17;;;;;;;22.50;13.80;;;;;;;1.44;100.00;102672.30;106625;1259;71622;-57
2024/02/17 02:18:44;;;;;;;22.90;13.30;;;;;;;1.43;100.00;102674.23;106096;1255;65588;-58
2024/02/17 02:21:12;;;;;;;25.00;13.00;;;;;;;1.42;100.00;102669.23;106072;1254;71781;-58
2024/02/17 02:23:44;;;;;;;21.40;13.70;;;;;;;1.42;100.00;102668.35;106167;1259;61131;-58
2024/02/17 02:26:11;;;;;;;22.50;13.00;;;;;;;1.41;100.00;102664.62;107007;1254;60445;-64
2024/02/17 02:28:39;;;;;;;20.30;13.10;;;;;;;1.41;100.00;102658.77;106226;1256;71756;-63
2024/02/17 02:31:06;;;;;;;20.10;12.80;;;;;;;1.41;100.00;102657.17;106162;1254;66736;-64
2024/02/17 02:33:33;;;;;;;23.20;14.90;;;;;;;1.41;100.00;102654.16;106147;1256;71452;-63
2024/02/17 02:36:01;;;;;;;21.90;14.50;;;;;;;1.40;100.00;102650.23;106451;1267;60364;-63
2024/02/17 02:38:28;;;;;;;28.10;15.80;;;;;;;1.39;100.00;102646.09;106104;1259;60686;-63
2024/02/17 02:40:55;;;;;;;30.00;16.20;;;;;;;1.37;100.00;102644.27;106103;1258;73853;-63
2024/02/17 02:43:23;;;;;;;26.40;16.20;;;;;;;1.35;100.00;102641.58;106138;1259;67102;-63
2024/02/17 02:45:50;;;;;;;23.70;15.10;;;;;;;1.34;100.00;102638.34;106098;1259;72644;-64
2024/02/17 02:48:17;;;;;;;24.90;15.30;;;;;;;1.32;100.00;102636.67;106024;1259;61410;-58
2024/02/17 02:50:45;;;;;;;21.70;13.80;;;;;;;1.32;100.00;102629.94;105952;1260;60302;-62
2024/02/17 02:53:13;;;;;;;23.60;13.60;;;;;;;1.32;100.00;102628.53;106073;1259;74217;-65
2024/02/17 02:55:40;;;;;;;25.60;14.10;;;;;;;1.32;100.00;102627.98;106100;1257;67105;-65
2024/02/17 02:58:07;;;;;;;24.80;15.30;;;;;;;1.32;100.00;102626.05;106057;1256;73746;-63
2024/02/17 03:00:34;;;;;;;23.70;14.60;;;;;;;1.32;100.00;102622.34;106087;1257;61506;-62
2024/02/17 03:03:02;;;;;;;22.20;14.10;;;;;;;1.31;100.00;102617.38;106130;1254;60444;-63
2024/02/17 03:05:30;;;;;;;23.30;12.90;;;;;;;1.30;100.00;102614.13;106153;1257;72643;-62
2024/02/17 03:07:58;;;;;;;22.20;13.90;;;;;;;1.29;100.00;102612.30;106767;1259;66706;-64
2024/02/17 03:10:25;;;;;;;24.80;15.40;;;;;;;1.28;100.00;102603.25;106112;1256;71439;-62
2024/02/17 03:12:52;;;;;;;26.20;15.50;;;;;;;1.25;100.00;102600.70;106185;1259;60876;-63
2024/02/17 03:15:19;;;;;;;26.30;16.20;;;;;;;1.22;100.00;102596.68;106384;1253;60406;-63
2024/02/17 03:17:47;;;;;;;25.90;14.60;;;;;;;1.20;100.00;102588.64;106108;1260;72640;-63
2024/02/17 03:20:15;;;;;;;22.70;14.50;;;;;;;1.17;100.00;102582.70;106097;1254;65846;-63
2024/02/17 03:22:43;;;;;;;29.60;16.30;;;;;;;1.14;100.00;102581.20;106267;1257;72432;-61
2024/02/17 03:25:11;;;;;;;24.30;15.20;;;;;;;1.13;100.00;102584.89;106039;1254;60949;-62
2024/02/17 03:27:39;;;;;;;26.50;15.80;;;;;;;1.13;100.00;102583.64;106530;1254;60654;-63
2024/02/17 03:30:07;;;;;;;27.30;16.20;;;;;;;1.12;100.00;102583.42;106066;1259;73839;-60
2024/02/17 03:32:34;;;;;;;28.70;15.70;;;;;;;1.11;100.00;102581.25;106447;1254;66323;-62
2024/02/17 03:35:03;;;;;;;24.40;13.80;;;;;;;1.09;100.00;102581.39;106045;1260;73109;-63
2024/02/17 03:37:31;;;;;;;26.30;17.00;;;;;;;1.06;100.00;102580.04;106612;1259;60004;-64
2024/02/17 03:39:58;;;;;;;26.50;16.30;;;;;;;1.03;100.00;102580.80;106092;1267;60568;-59
2024/02/17 03:42:26;;;;;;;27.20;16.90;;;;;;;1.00;100.00;102581.05;106227;1257;72635;-63
2024/02/17 03:44:53;;;;;;;31.90;18.30;;;;;;;0.96;100.00;102574.73;106115;1259;65854;-60
2024/02/17 03:47:21;;;;;;;26.50;16.70;;;;;;;0.92;100.00;102571.59;106089;1259;73743;-62
2024/02/17 03:49:48;;;;;;;27.80;15.90;;;;;;;0.90;100.00;102568.84;106110;1256;61113;-62
2024/02/17 03:52:16;;;;;;;25.60;15.90;;;;;;;0.89;100.00;102565.98;106146;1254;60538;-62
2024/02/17 03:54:43;;;;;;;30.10;16.00;;;;;;;0.88;100.00;102557.27;106045;1254;73748;-63
2024/02/17 03:57:13;;;;;;;26.10;15.10;;;;;;;0.87;100.00;102549.98;106150;1254;65665;-62
2024/02/17 03:59:41;;;;;;;22.00;14.00;;;;;;;0.88;100.00;102552.32;107283;1255;71085;-63
2024/02/17 04:02:08;;;;;;;25.50;14.70;;;;;;;0.88;100.00;102546.85;106101;1254;60385;-64
2024/02/17 04:04:35;;;;;;;22.00;14.10;;;;;;;0.90;100.00;102543.02;106123;1254;60831;-62
2024/02/17 04:07:03;;;;;;;24.90;15.40;;;;;;;0.90;100.00;102541.63;106146;1257;72015;-62
2024/02/17 04:09:30;;;;;;;25.70;14.70;;;;;;;0.90;100.00;102532.80;106118;1256;67046;-62
2024/02/17 04:11:58;;;;;;;24.90;14.10;;;;;;;0.90;100.00;102528.20;106111;1260;72045;-65
2024/02/17 04:14:25;;;;;;;22.80;13.50;;;;;;;0.90;100.00;102528.35;106115;1254;60668;-63
2024/02/17 04:16:53;;;;;;;24.00;14.90;;;;;;;0.89;100.00;102530.63;106306;1257;60943;-63
2024/02/17 04:19:20;;;;;;;20.70;13.00;;;;;;;0.88;100.00;102530.04;106123;1258;73976;-64
2024/02/17 04:21:47;;;;;;;20.60;13.50;;;;;;;0.84;100.00;102525.15;106138;1258;67213;-61
2024/02/17 04:24:15;;;;;;;21.10;13.50;;;;;;;0.82;100.00;102525.76;106128;1254;72625;-63
2024/02/17 04:26:42;;;;;;;21.90;12.80;;;;;;;0.80;100.00;102526.39;109052;1254;59686;-63
2024/02/17 04:29:15;;;;;;;17.00;10.50;;;;;;;0.78;100.00;102522.80;109127;1256;58725;-64
2024/02/17 04:31:43;;;;;;;19.10;12.40;;;;;;;0.75;100.00;102523.27;109110;1254;73649;-62
2024/02/17 04:34:10;;;;;;;17.70;11.90;;;;;;;0.74;100.00;102515.97;109195;1252;66949;-64
2024/02/17 04:36:38;;;;;;;15.00;10.30;;;;;;;0.75;100.00;102513.17;106811;1253;72697;-62
2024/02/17 04:39:05;;;;;;;15.00;10.30;;;;;;;0.76;100.00;102516.04;106012;1259;60901;-62
2024/02/17 04:41:33;;;;;;;16.50;10.10;;;;;;;0.78;100.00;102512.17;106193;1254;60425;-62
2024/02/17 04:44:00;;;;;;;11.90;8.80;;;;;;;0.78;100.00;102513.43;106073;1254;72642;-63
2024/02/17 04:46:27;;;;;;;13.10;8.80;;;;;;;0.75;100.00;102506.46;106099;1270;65775;-63
2024/02/17 04:48:55;;;;;;;19.20;10.90;;;;;;;0.74;100.00;102510.32;106026;1253;73151;-59
2024/02/17 04:51:22;;;;;;;15.90;10.90;;;;;;;0.73;100.00;102504.61;106126;1266;60504;-60
2024/02/17 04:53:50;;;;;;;15.90;10.90;;;;;;;0.72;100.00;102502.10;106107;1254;60491;-60
2024/02/17 04:56:18;;;;;;;16.80;11.80;;;;;;;0.69;100.00;102497.39;106110;1257;72226;-64
2024/02/17 04:58:45;;;;;;;18.10;11.50;;;;;;;0.67;100.00;102491.52;106228;1257;65645;-63
2024/02/17 05:01:12;;;;;;;20.90;12.20;;;;;;;0.66;100.00;102492.70;106137;1257;71495;-60
2024/02/17 05:03:40;;;;;;;17.80;11.30;;;;;;;0.66;100.00;102491.46;106635;1254;61317;-59
2024/02/17 05:06:11;;;;;;;15.70;9.90;;;;;;;0.67;100.00;102495.05;106829;1260;61289;-63
2024/02/17 05:08:38;;;;;;;18.10;11.90;;;;;;;0.68;100.00;102502.85;107499;1259;74317;-62
2024/02/17 05:11:07;;;;;;;14.30;8.90;;;;;;;0.70;100.00;102495.45;105956;1259;67110;-63
2024/02/17 05:13:34;;;;;;;15.90;10.40;;;;;;;0.70;100.00;102497.61;105942;1270;72722;-63
2024/02/17 05:16:02;;;;;;;16.00;10.50;;;;;;;0.71;100.00;102501.18;106147;1256;60435;-61
2024/02/17 05:18:29;;;;;;;12.40;9.00;;;;;;;0.71;100.00;102500.13;106006;1260;61328;-62
2024/02/17 05:23:48;;;;;;;15.80;10.30;;;;;;;0.73;100.00;102565.04;102582;1296;603962;-63
2024/02/17 05:26:15;;;;;;;15.80;10.20;;;;;;;0.72;100.00;102670.02;105879;1265;59306;-61
2024/02/17 05:28:41;;;;;;;17.90;10.90;;;;;;;0.72;100.00;102633.77;105387;1268;59370;-61
2024/02/17 05:31:24;;;;;;;15.70;10.90;;;;;;;0.71;100.00;102624.90;105349;1266;59354;-61
2024/02/17 05:33:51;;;;;;;14.40;9.90;;;;;;;0.68;100.00;102628.33;105396;1266;67148;-60
2024/02/17 05:36:18;;;;;;;15.50;9.70;;;;;;;0.64;100.00;102603.77;105244;1266;223615;-61
2024/02/17 05:38:44;;;;;;;15.10;9.20;;;;;;;0.60;100.00;102592.68;106353;1268;60340;-58
2024/02/17 05:41:12;;;;;;;14.40;10.20;;;;;;;0.58;100.00;102584.48;105423;1270;60533;-61
2024/02/17 05:43:38;;;;;;;16.10;10.80;;;;;;;0.56;100.00;102576.96;105305;1268;72868;-61
2024/02/17 05:46:05;;;;;;;13.80;9.10;;;;;;;0.56;100.00;102570.06;105648;1263;60135;-63
2024/02/17 05:48:32;;;;;;;12.30;9.10;;;;;;;0.56;100.00;102565.29;106418;1259;73041;-62
2024/02/17 05:50:59;;;;;;;15.10;9.70;;;;;;;0.57;100.00;102562.19;106385;1260;59983;-62
2024/02/17 05:53:26;;;;;;;14.80;10.50;;;;;;;0.59;100.00;102563.14;106902;1256;60335;-59
2024/02/17 05:55:53;;;;;;;14.50;9.70;;;;;;;0.62;100.00;102561.81;106248;1267;71584;-61
2024/02/17 05:58:19;;;;;;;17.20;10.40;;;;;;;0.64;100.00;102560.46;106237;1251;59682;-62
2024/02/17 06:00:46;;;;;;;15.00;10.30;;;;;;;0.66;100.00;102556.16;106217;1254;60512;-62
2024/02/17 06:03:14;;;;;;;16.40;11.40;;;;;;;0.68;100.00;102556.56;107095;1255;59728;-62
2024/02/17 06:05:41;;;;;;;17.10;11.50;;;;;;;0.68;100.00;102557.63;106395;1253;60594;-61
2024/02/17 06:08:07;;;;;;;17.50;11.00;;;;;;;0.67;100.00;102553.72;106232;1263;59687;-61
2024/02/17 06:10:34;;;;;;;18.90;12.80;;;;;;;0.64;100.00;102549.19;108584;1256;67599;-62
2024/02/17 06:13:00;;;;;;;23.60;14.60;;;;;;;0.62;100.00;102549.61;106215;1254;59765;-62
2024/02/17 06:15:27;;;;;;;22.80;13.60;;;;;;;0.61;100.00;102546.92;106210;1266;60512;-61
2024/02/17 06:23:25;;;;;;;22.70;14.00;;;;;;;0.59;100.00;102559.07;106216;1256;66539;-61
2024/02/17 06:25:51;;;;;;;22.40;15.20;;;;;;;0.58;100.00;102542.08;106222;1266;59731;-62
2024/02/17 06:28:19;;;;;;;21.10;13.00;;;;;;;0.58;100.00;102540.32;106154;1259;61178;-62
2024/02/17 06:30:46;;;;;;;26.80;16.10;;;;;;;0.59;100.00;102540.34;106147;1257;59672;-62
2024/02/17 06:33:12;;;;;;;21.40;14.70;;;;;;;0.61;100.00;102542.86;106227;1266;59514;-61
2024/02/17 06:35:39;;;;;;;27.10;14.70;;;;;;;0.64;100.00;102546.19;106941;1256;67125;-61
2024/02/17 06:38:06;;;;;;;22.40;14.60;;;;;;;0.67;100.00;102549.28;106203;1256;72802;-59
2024/02/17 06:40:33;;;;;;;24.80;15.40;;;;;;;0.68;100.00;102551.45;106313;1257;60124;-61
2024/02/17 06:42:59;;;;;;;23.80;14.50;;;;;;;0.69;100.00;102549.16;106333;1256;59621;-62
2024/02/17 06:45:26;;;;;;;24.60;15.90;;;;;;;0.70;100.00;102546.72;106951;1257;73573;-59
2024/02/17 06:47:52;;;;;;;26.00;16.70;;;;;;;0.69;100.00;102546.16;106248;1260;59698;-62
2024/02/17 06:50:19;;;;;;;26.10;16.20;;;;;;;0.68;100.00;102547.54;106292;1256;71561;-60
2024/02/17 06:52:52;;;;;;;22.60;15.30;;;;;;;0.68;100.00;102552.67;106921;1259;61165;-58
2024/02/17 06:55:18;;;;;;;22.90;15.20;;;;;;;0.68;100.00;102552.32;106215;1251;59685;-62
2024/02/17 06:57:45;;;;;;;26.20;15.70;;;;;;;0.69;100.00;102548.80;106385;1255;71814;-60
2024/02/17 07:00:12;;;;;;;26.90;15.10;;;;;;;0.71;100.00;102548.73;106221;1254;67543;-61
2024/02/17 07:02:39;;;;;;;22.00;15.30;;;;;;;0.73;100.00;102546.15;106402;1256;71969;-63
2024/02/17 07:05:06;;;;;;;27.70;16.10;;;;;;;0.75;100.00;102549.93;106221;1251;60230;-63
2024/02/17 07:07:33;;;;;;;24.00;15.80;;;;;;;0.77;100.00;102546.81;108899;1252;60627;-63
2024/02/17 07:10:03;;;;;;;25.60;18.00;;;;;;;0.80;100.00;102545.86;106096;1253;72742;-62
2024/02/17 07:12:31;;;;;;;25.70;16.90;;;;;;;0.81;100.00;102546.26;106124;1254;67165;-63
2024/02/17 07:14:58;;;;;;;25.50;17.10;;;;;;;0.82;100.00;102550.55;109132;1252;72036;-63
2024/02/17 07:17:24;;;;;;;27.90;16.70;;;;;;;0.83;100.00;102550.77;109205;1252;58115;-63
2024/02/17 07:19:51;;;;;;;34.30;20.40;;;;;;;0.84;100.00;102550.24;109270;1253;58859;-64
2024/02/17 07:22:18;;;;;;;30.30;20.00;;;;;;;0.85;100.00;102551.15;109205;1251;73326;-63
2024/02/17 07:24:44;;;;;;;25.70;16.50;;;;;;;0.84;100.00;102550.08;109213;1254;65853;-62
2024/02/17 07:27:11;;;;;;;30.40;19.10;;;;;;;0.83;100.00;102551.63;109342;1251;71421;-58
2024/02/17 07:29:39;;;;;;;27.80;17.60;;;;;;;0.83;100.00;102552.52;109260;1251;59839;-62
2024/02/17 07:32:05;;;;;;;26.90;18.30;;;;;;;0.86;100.00;102551.88;109202;1251;58785;-61
2024/02/17 07:34:33;;;;;;;31.60;18.50;;;;;;;0.89;100.00;102557.30;106866;1251;73451;-62
2024/02/17 07:37:02;;;;;;;30.80;18.50;;;;;;;0.91;100.00;102563.77;109235;1251;66909;-62
2024/02/17 07:39:29;;;;;;;27.60;17.30;;;;;;;0.94;100.00;102566.16;106780;1256;71448;-62
2024/02/17 07:41:56;;;;;;;28.30;18.40;;;;;;;0.97;100.00;102563.79;106123;1259;61898;-62
2024/02/17 07:44:23;;;;;;;28.00;18.70;;;;;;;0.98;100.00;102563.14;106302;1256;61734;-61
2024/02/17 07:46:50;;;;;;;30.60;18.40;;;;;;;1.01;100.00;102564.12;106166;1258;73885;-62
2024/02/17 07:49:17;;;;;;;30.00;20.20;;;;;;;1.04;100.00;102563.32;109250;1251;67244;-62
2024/02/17 07:51:44;;;;;;;29.60;20.30;;;;;;;1.05;100.00;102564.61;109199;1253;71649;-62
2024/02/17 07:54:11;;;;;;;31.30;20.50;;;;;;;1.06;100.00;102565.69;106266;1261;59694;-62
2024/02/17 07:56:37;;;;;;;30.00;19.40;;;;;;;1.06;100.00;102561.65;106569;1254;60570;-58
2024/02/17 07:59:06;;;;;;;29.00;19.30;;;;;;;1.07;100.00;102562.92;106236;1254;73942;-62
2024/02/17 08:01:33;;;;;;;35.90;22.50;;;;;;;1.08;100.00;102564.73;106210;1255;67735;-61
2024/02/17 08:04:00;;;;;;;34.10;21.40;;;;;;;1.08;100.00;102562.77;106406;1254;71587;-59
2024/02/17 08:06:27;;;;;;;33.60;21.10;;;;;;;1.07;100.00;102563.27;106689;1266;61153;-62
2024/02/17 08:08:54;;;;;;;36.70;22.70;;;;;;;1.06;100.00;102561.48;106197;1256;60062;-62
2024/02/17 08:11:21;;;;;;;38.10;24.40;;;;;;;1.06;100.00;102561.45;106222;1256;73425;-63
2024/02/17 08:13:47;;;;;;;40.80;24.50;;;;;;;1.07;100.00;102562.39;106322;1251;64882;-62
2024/02/17 08:16:14;;;;;;;39.70;23.40;;;;;;;1.08;100.00;102558.89;106376;1257;72791;-61
2024/02/17 08:18:42;;;;;;;42.10;24.50;;;;;;;1.09;100.00;102559.09;106195;1254;61608;-60
2024/02/17 08:21:10;;;;;;;43.40;25.10;;;;;;;1.10;100.00;102556.66;109215;1257;60296;-61
2024/02/17 08:23:36;;;;;;;43.90;26.00;;;;;;;1.13;100.00;102562.77;107348;1256;72602;-61
2024/02/17 08:26:05;;;;;;;39.40;23.30;;;;;;;1.18;100.00;102563.46;106178;1257;67743;-61
2024/02/17 08:28:33;;;;;;;51.90;26.50;;;;;;;1.21;100.00;102566.04;106261;1258;72340;-61
2024/02/17 08:31:00;;;;;;;45.50;27.90;;;;;;;1.24;100.00;102562.10;106287;1257;59514;-62
2024/02/17 08:33:30;;;;;;;46.60;28.80;;;;;;;1.29;100.00;102561.88;106569;1252;60460;-62
2024/02/17 08:35:58;;;;;;;57.00;31.70;;;;;;;1.32;100.00;102561.46;106495;1254;73303;-62
2024/02/17 08:38:24;;;;;;;50.50;29.20;;;;;;;1.35;100.00;102563.17;106633;1256;67210;-63
2024/02/17 08:40:51;;;;;;;58.10;31.30;;;;;;;1.38;100.00;102564.69;106308;1254;72603;-61
2024/02/17 08:43:17;;;;;;;52.50;30.30;;;;;;;1.41;100.00;102558.60;106256;1253;59637;-61
2024/02/17 08:45:44;;;;;;;53.50;29.70;;;;;;;1.43;100.00;102558.14;106195;1259;59773;-62
2024/02/17 08:48:11;;;;;;;52.00;30.30;;;;;;;1.44;100.00;102563.69;106135;1251;60483;-61
2024/02/17 08:50:39;;;;;;;55.00;29.50;;;;;;;1.45;100.00;102561.02;106069;1261;65792;-60
2024/02/17 08:53:05;;;;;;;60.70;29.60;;;;;;;1.47;100.00;102566.08;106326;1258;72978;-62
2024/02/17 08:55:32;;;;;;;52.90;29.90;;;;;;;1.52;100.00;102568.16;106077;1254;61308;-60
2024/02/17 08:57:58;;;;;;;49.60;28.40;;;;;;;1.56;100.00;102573.61;106445;1251;59710;-62
2024/02/17 09:00:25;;;;;;;52.50;27.20;;;;;;;1.62;100.00;102575.21;106080;1257;59702;-61
2024/02/17 09:02:52;;;;;;;52.20;28.30;;;;;;;1.66;100.00;102580.85;106090;1257;67148;-64
2024/02/17 09:05:19;;;;;;;63.60;41.00;;;;;;;1.71;100.00;102586.13;106606;1259;73240;-61
2024/02/17 09:07:46;;;;;;;62.10;39.50;;;;;;;1.74;100.00;102596.52;106853;1257;59624;-61
2024/02/17 09:10:15;;;;;;;91.30;62.40;;;;;;;1.77;100.00;102599.98;106441;1257;60421;-60
2024/02/17 09:12:42;;;;;;;176.00;131.40;;;;;;;1.76;100.00;102604.39;106521;1256;72489;-61
2024/02/17 09:15:09;;;;;;;85.10;58.40;;;;;;;1.76;100.00;102609.33;106641;1251;67494;-58
2024/02/17 09:17:36;;;;;;;59.20;36.10;;;;;;;1.78;100.00;102610.28;107140;1256;72520;-61
2024/02/17 09:20:04;;;;;;;62.50;37.60;;;;;;;1.80;100.00;102607.52;106172;1260;61525;-60
2024/02/17 09:22:31;;;;;;;48.80;27.00;;;;;;;1.83;100.00;102607.60;107805;1251;60721;-61
2024/02/17 09:24:58;;;;;;;51.10;31.40;;;;;;;1.86;100.00;102609.13;106327;1256;72670;-61
2024/02/17 09:27:24;;;;;;;61.60;40.90;;;;;;;1.89;100.00;102611.34;106197;1261;67349;-60
2024/02/17 09:29:51;;;;;;;37.00;24.20;;;;;;;1.92;100.00;102610.02;106227;1254;72677;-60
2024/02/17 09:32:18;;;;;;;31.90;18.80;;;;;;;1.94;100.00;102613.45;108145;1256;61301;-61
2024/02/17 09:34:44;;;;;;;30.30;19.30;;;;;;;1.95;100.00;102614.57;106183;1256;60441;-61
2024/02/17 09:37:12;;;;;;;25.30;15.10;;;;;;;1.96;100.00;102612.29;106622;1254;72817;-60
2024/02/17 09:39:40;;;;;;;35.00;21.50;;;;;;;1.97;100.00;102609.66;106283;1257;67533;-63
2024/02/17 09:42:07;;;;;;;30.10;20.50;;;;;;;1.99;100.00;102609.89;106712;1255;72807;-62
2024/02/17 09:44:34;;;;;;;31.00;19.50;;;;;;;2.00;100.00;102612.77;107556;1253;60483;-62
2024/02/17 09:47:00;;;;;;;27.10;17.50;;;;;;;2.00;100.00;102612.58;107220;1254;60806;-62
2024/02/17 09:49:27;;;;;;;27.10;18.00;;;;;;;2.00;100.00;102612.58;106018;1267;74032;-62
2024/02/17 09:51:54;;;;;;;26.80;17.90;;;;;;;1.99;100.00;102608.11;106405;1257;67098;-62
2024/02/17 09:54:21;;;;;;;27.50;17.70;;;;;;;1.98;100.00;102608.45;108381;1254;74161;-62
2024/02/17 09:56:49;;;;;;;26.80;17.50;;;;;;;1.97;100.00;102603.09;106651;1256;60920;-62
2024/02/17 09:59:15;;;;;;;27.50;18.60;;;;;;;1.98;100.00;102601.17;106365;1257;60574;-64
2024/02/17 10:01:42;;;;;;;28.30;16.30;;;;;;;1.99;100.00;102605.29;106333;1254;60428;-61
2024/02/17 10:04:09;;;;;;;24.50;15.00;;;;;;;2.01;100.00;102600.92;106369;1255;67240;-62
2024/02/17 10:06:36;;;;;;;27.50;16.40;;;;;;;2.03;100.00;102597.64;109093;1253;73011;-61
2024/02/17 10:09:03;;;;;;;22.80;16.00;;;;;;;2.05;100.00;102596.45;109171;1253;60044;-59
2024/02/17 10:11:30;;;;;;;23.30;15.50;;;;;;;2.06;100.00;102591.50;109146;1253;60060;-62
2024/02/17 10:14:03;;;;;;;24.10;15.20;;;;;;;2.04;100.00;102589.33;109152;1251;73867;-62
2024/02/17 10:16:31;;;;;;;27.70;16.70;;;;;;;2.04;100.00;102593.05;109024;1253;67314;-62
2024/02/17 10:18:59;;;;;;;24.90;16.60;;;;;;;2.06;100.00;102590.79;109219;1252;71457;-62
2024/02/17 10:21:26;;;;;;;24.30;16.00;;;;;;;2.06;100.00;102589.94;108997;1253;59202;-63
2024/02/17 10:23:53;;;;;;;26.90;16.50;;;;;;;2.07;100.00;102579.84;109132;1251;60322;-63
2024/02/17 10:26:20;;;;;;;24.40;15.30;;;;;;;2.09;100.00;102577.43;106726;1256;73708;-61
2024/02/17 10:28:56;;;;;;;26.30;15.00;;;;;;;2.11;100.00;102577.16;106307;1263;60902;-62
2024/02/17 10:31:22;;;;;;;21.90;14.30;;;;;;;2.12;100.00;102585.71;106285;1256;72711;-63
2024/02/17 10:33:52;;;;;;;21.80;14.20;;;;;;;2.13;100.00;102578.64;106031;1256;61347;-62
2024/02/17 10:36:19;;;;;;;23.70;15.70;;;;;;;2.15;100.00;102576.56;108503;1257;60453;-60
2024/02/17 10:38:46;;;;;;;21.80;13.80;;;;;;;2.17;100.00;102575.92;107303;1254;73752;-60
2024/02/17 10:41:12;;;;;;;22.70;15.40;;;;;;;2.19;100.00;102575.30;106288;1256;68470;-63
2024/02/17 10:43:43;;;;;;;26.40;14.60;;;;;;;2.20;100.00;102573.91;106300;1258;61411;-62
2024/02/17 10:46:22;;;;;;;24.40;16.30;;;;;;;2.22;100.00;102577.48;107146;1251;60562;-63
2024/02/17 10:49:01;;;;;;;22.90;15.80;;;;;;;2.23;100.00;102582.66;106617;1254;60315;-62
2024/02/17 10:51:28;;;;;;;58.70;33.50;;;;;;;2.23;100.00;102584.96;106498;1256;75076;-61
2024/02/17 10:53:58;;;;;;;45.00;25.60;;;;;;;2.22;100.00;102563.67;106306;1251;67092;-60
2024/02/17 10:56:25;;;;;;;61.30;38.90;;;;;;;2.22;100.00;102567.58;106179;1255;71545;-62
2024/02/17 10:58:54;;;;;;;37.30;23.50;;;;;;;2.22;100.00;102555.52;106302;1251;62442;-62
2024/02/17 11:01:20;;;;;;;28.30;17.90;;;;;;;2.22;100.00;102558.02;107087;1257;60360;-63
2024/02/17 11:03:47;;;;;;;22.20;15.20;;;;;;;2.24;100.00;102556.11;106153;1257;74004;-59
2024/02/17 11:06:15;;;;;;;21.20;13.80;;;;;;;2.24;100.00;102552.94;108663;1254;67573;-62
2024/02/17 11:08:42;;;;;;;20.30;14.00;;;;;;;2.25;100.00;102546.77;106305;1275;71501;-62
2024/02/17 11:11:32;;;;;;;24.00;14.70;;;;;;;2.25;100.00;102543.22;106139;1269;61110;-63